createdAt,value
2023-05-05T00:01:22.835Z,2.65
2023-05-05T00:03:50.387Z,2.63
2023-05-05T00:06:18.236Z,3.13
2023-05-05T00:08:46.339Z,3.22
2023-05-05T00:11:14.013Z,2.58
2023-05-05T00:13:41.363Z,3.25
2023-05-05T00:16:08.864Z,2.63
2023-05-05T00:18:36.181Z,2.45
2023-05-05T00:21:04.318Z,2.40
2023-05-05T00:23:31.724Z,2.17
2023-05-05T00:25:58.980Z,2.03
2023-05-05T00:28:27.616Z,2.42
2023-05-05T00:30:54.886Z,2.65
2023-05-05T00:33:22.432Z,2.63
2023-05-05T00:35:49.864Z,2.42
2023-05-05T00:38:17.693Z,2.45
2023-05-05T00:40:45.257Z,2.80
2023-05-05T00:43:12.967Z,2.38
2023-05-05T00:45:42.766Z,2.85
2023-05-05T00:48:10.360Z,2.63
2023-05-05T00:50:38.058Z,2.50
2023-05-05T00:53:07.308Z,2.83
2023-05-05T00:55:39.262Z,2.97
2023-05-05T00:58:06.594Z,2.75
2023-05-05T01:00:34.274Z,2.90
2023-05-05T01:03:01.713Z,3.08
2023-05-05T01:05:34.419Z,2.63
2023-05-05T01:08:20.431Z,2.88
2023-05-05T01:10:57.406Z,2.28
2023-05-05T01:13:40.321Z,2.63
2023-05-05T01:16:12.963Z,2.60
2023-05-05T01:18:52.587Z,2.60
2023-05-05T01:21:31.650Z,2.30
2023-05-05T01:23:59.191Z,2.30
2023-05-05T01:26:59.267Z,2.22
2023-05-05T01:29:29.381Z,2.90
2023-05-05T01:32:02.010Z,2.38
2023-05-05T01:34:55.885Z,2.15
2023-05-05T01:37:25.784Z,2.47
2023-05-05T01:39:55.857Z,2.90
2023-05-05T01:42:24.533Z,3.25
2023-05-05T01:45:04.265Z,2.90
2023-05-05T01:47:32.622Z,2.78
2023-05-05T01:50:03.216Z,2.92
2023-05-05T01:52:33.363Z,2.70
2023-05-05T01:55:01.228Z,2.65
2023-05-05T01:57:30.925Z,2.70
2023-05-05T01:59:59.179Z,2.55
2023-05-05T02:02:28.156Z,4.22
2023-05-05T02:04:57.152Z,2.75
2023-05-05T02:07:27.889Z,2.67
2023-05-05T02:09:56.341Z,2.60
2023-05-05T02:12:24.063Z,2.60
2023-05-05T02:14:52.170Z,2.85
2023-05-05T02:17:20.056Z,2.67
2023-05-05T02:19:48.522Z,3.38
2023-05-05T02:22:17.115Z,2.97
2023-05-05T02:24:45.123Z,2.95
2023-05-05T02:27:12.907Z,2.60
2023-05-05T02:29:45.439Z,2.90
2023-05-05T02:32:20.222Z,3.05
2023-05-05T02:34:50.402Z,2.80
2023-05-05T02:37:27.113Z,2.70
2023-05-05T02:40:05.320Z,2.80
2023-05-05T02:42:39.776Z,3.30
2023-05-05T02:47:39.523Z,4.13
2023-05-05T02:50:11.109Z,2.85
2023-05-05T02:52:47.187Z,3.45
2023-05-05T02:55:15.964Z,3.83
2023-05-05T02:57:51.002Z,3.50
2023-05-05T03:00:18.938Z,4.25
2023-05-05T03:02:56.145Z,3.67
2023-05-05T03:05:24.717Z,4.60
2023-05-05T03:08:15.052Z,4.20
2023-05-05T03:10:55.494Z,2.90
2023-05-05T03:13:30.012Z,2.88
2023-05-05T03:15:58.678Z,2.75
2023-05-05T03:18:28.764Z,3.30
2023-05-05T03:21:07.747Z,3.05
2023-05-05T03:23:36.896Z,3.10
2023-05-05T03:26:09.915Z,3.70
2023-05-05T03:28:41.729Z,3.28
2023-05-05T03:31:17.602Z,3.40
2023-05-05T03:33:47.350Z,3.03
2023-05-05T03:36:14.890Z,3.20
2023-05-05T03:38:42.153Z,4.50
2023-05-05T03:41:10.824Z,3.17
2023-05-05T03:43:39.432Z,3.20
2023-05-05T03:46:07.239Z,3.95
2023-05-05T03:48:34.647Z,3.70
2023-05-05T03:51:09.010Z,3.58
2023-05-05T03:53:47.550Z,4.43
2023-05-05T03:56:14.922Z,3.72
2023-05-05T03:58:42.282Z,3.38
2023-05-05T04:01:09.766Z,3.30
2023-05-05T04:03:37.892Z,3.17
2023-05-05T04:06:06.581Z,3.20
2023-05-05T04:08:34.576Z,2.85
2023-05-05T04:11:04.856Z,5.28
2023-05-05T04:13:34.281Z,3.20
2023-05-05T04:16:03.064Z,2.40
2023-05-05T04:18:31.209Z,2.30
2023-05-05T04:20:58.901Z,3.08
2023-05-05T04:23:27.142Z,3.22
2023-05-05T04:25:54.804Z,2.72
2023-05-05T04:28:22.449Z,3.28
2023-05-05T04:30:50.107Z,3.47
2023-05-05T04:33:17.517Z,3.28
2023-05-05T04:35:46.628Z,2.72
2023-05-05T04:38:13.986Z,4.90
2023-05-05T04:40:44.847Z,2.83
2023-05-05T04:43:15.283Z,3.05
2023-05-05T04:45:52.508Z,3.25
2023-05-05T04:48:21.480Z,4.25
2023-05-05T04:51:20.026Z,7.05
2023-05-05T04:53:47.654Z,8.98
2023-05-05T04:56:15.036Z,8.48
2023-05-05T04:58:42.451Z,6.70
2023-05-05T05:01:10.082Z,5.68
2023-05-05T05:03:37.849Z,6.75
2023-05-05T05:06:05.375Z,5.38
2023-05-05T05:08:32.718Z,5.53
2023-05-05T05:11:00.656Z,5.95
2023-05-05T05:13:28.105Z,4.68
2023-05-05T05:20:04.917Z,4.00
2023-05-05T05:22:34.866Z,3.70
2023-05-05T05:25:03.226Z,4.32
2023-05-05T05:27:45.542Z,4.07
2023-05-05T05:30:16.535Z,3.45
2023-05-05T05:32:44.307Z,6.03
2023-05-05T05:35:43.326Z,3.33
2023-05-05T05:38:11.055Z,3.60
2023-05-05T05:40:53.529Z,3.40
2023-05-05T05:46:34.925Z,3.42
2023-05-05T05:49:02.728Z,3.45
2023-05-05T05:52:00.801Z,3.80
2023-05-05T05:54:29.086Z,3.00
2023-05-05T05:57:24.543Z,2.80
2023-05-05T05:59:53.893Z,3.20
2023-05-05T06:02:21.990Z,3.45
2023-05-05T06:04:49.448Z,2.92
2023-05-05T06:07:16.927Z,3.13
2023-05-05T06:09:48.697Z,3.25
2023-05-05T06:12:16.322Z,3.10
2023-05-05T06:14:44.008Z,3.10
2023-05-05T06:17:11.963Z,3.97
2023-05-05T06:19:42.099Z,2.97
2023-05-05T06:22:09.770Z,3.20
2023-05-05T06:24:37.848Z,3.10
2023-05-05T06:27:05.559Z,4.25
2023-05-05T06:29:32.991Z,2.75
2023-05-05T06:32:01.378Z,5.28
2023-05-05T06:34:28.742Z,2.92
2023-05-05T06:36:56.276Z,2.53
2023-05-05T06:39:23.569Z,2.55
2023-05-05T06:41:50.977Z,2.20
2023-05-05T06:44:18.312Z,2.50
2023-05-05T06:46:45.892Z,2.78
2023-05-05T06:49:14.417Z,3.25
2023-05-05T06:51:42.844Z,2.55
2023-05-05T06:54:10.434Z,3.00
2023-05-05T06:57:01.226Z,2.38
2023-05-05T07:00:12.905Z,4.10
2023-05-05T07:10:22.316Z,2.90
2023-05-05T07:13:19.841Z,2.03
2023-05-05T07:20:04.159Z,2.80
2023-05-05T07:34:09.185Z,2.00
2023-05-05T07:37:27.463Z,1.60
2023-05-05T07:52:04.638Z,2.25
2023-05-05T07:54:57.392Z,1.90
2023-05-05T08:02:25.346Z,1.50
2023-05-05T08:05:51.714Z,2.15
2023-05-05T08:11:40.660Z,1.80
2023-05-05T08:14:56.381Z,1.55
2023-05-05T08:17:28.038Z,1.77
2023-05-05T08:20:14.490Z,2.20
2023-05-05T08:27:12.181Z,1.55
2023-05-05T08:30:01.394Z,1.58
2023-05-05T08:32:32.535Z,1.60
2023-05-05T08:35:06.455Z,1.90
2023-05-05T08:38:35.777Z,1.38
2023-05-05T08:44:06.059Z,1.50
2023-05-05T08:47:53.051Z,1.58
2023-05-05T08:50:56.634Z,2.60
2023-05-05T08:54:13.893Z,2.15
2023-05-05T08:57:15.462Z,2.67
2023-05-05T08:59:43.457Z,1.30
2023-05-05T09:02:12.234Z,1.98
2023-05-05T09:04:39.805Z,1.80
2023-05-05T09:07:07.762Z,1.85
2023-05-05T09:09:36.005Z,2.97
2023-05-05T09:12:05.162Z,2.55
2023-05-05T09:14:33.234Z,2.00
2023-05-05T09:17:02.359Z,2.10
2023-05-05T09:19:29.743Z,1.73
2023-05-05T09:21:57.156Z,2.38
2023-05-05T09:24:24.599Z,1.70
2023-05-05T09:26:52.112Z,2.75
2023-05-05T09:29:20.362Z,2.28
2023-05-05T09:32:05.321Z,1.98
2023-05-05T09:34:34.857Z,1.50
2023-05-05T09:37:02.573Z,2.00
2023-05-05T09:39:30.380Z,1.90
2023-05-05T09:41:58.517Z,2.03
2023-05-05T09:44:36.292Z,2.30
2023-05-05T09:47:07.247Z,3.20
2023-05-05T09:49:39.575Z,1.75
2023-05-05T09:52:16.563Z,1.85
2023-05-05T09:54:44.529Z,1.80
2023-05-05T09:57:28.411Z,1.83
2023-05-05T09:59:57.460Z,1.67
2023-05-05T10:02:35.586Z,2.53
2023-05-05T10:05:07.124Z,1.80
2023-05-05T10:07:34.889Z,2.53
2023-05-05T10:10:03.416Z,1.75
2023-05-05T10:12:32.446Z,1.70
2023-05-05T10:15:02.900Z,1.83
2023-05-05T10:17:32.715Z,1.43
2023-05-05T10:20:01.210Z,1.95
2023-05-05T10:22:30.488Z,1.50
2023-05-05T10:24:58.791Z,1.05
2023-05-05T10:27:29.069Z,1.90
2023-05-05T10:30:00.204Z,1.80
2023-05-05T10:32:56.819Z,2.90
2023-05-05T10:35:23.065Z,1.50
2023-05-05T10:37:51.013Z,1.70
2023-05-05T10:40:18.429Z,1.48
2023-05-05T10:42:46.493Z,1.30
2023-05-05T10:45:13.892Z,1.33
2023-05-05T10:47:41.773Z,1.60
2023-05-05T10:50:12.106Z,1.60
2023-05-05T10:52:58.243Z,2.00
2023-05-05T10:55:33.729Z,2.25
2023-05-05T10:58:01.142Z,2.33
2023-05-05T11:00:41.162Z,1.80
2023-05-05T11:03:17.833Z,2.25
2023-05-05T11:06:04.617Z,2.40
2023-05-05T11:08:44.815Z,1.70
2023-05-05T11:11:13.164Z,3.60
2023-05-05T11:13:41.548Z,2.25
2023-05-05T11:16:27.765Z,2.03
2023-05-05T11:18:55.341Z,1.45
2023-05-05T11:21:22.841Z,2.05
2023-05-05T11:23:51.546Z,3.42
2023-05-05T11:26:20.086Z,1.63
2023-05-05T11:29:03.645Z,1.52
2023-05-05T11:31:31.922Z,1.70
2023-05-05T11:34:18.326Z,1.23
2023-05-05T11:36:45.703Z,1.80
2023-05-05T11:39:24.234Z,1.45
2023-05-05T11:41:58.724Z,1.40
2023-05-05T11:44:33.464Z,1.40
2023-05-05T11:47:01.237Z,1.55
2023-05-05T11:49:28.754Z,1.23
2023-05-05T11:52:03.695Z,1.00
2023-05-05T11:54:31.508Z,3.40
2023-05-05T11:57:11.014Z,1.13
2023-05-05T11:59:51.317Z,1.38
2023-05-05T12:02:19.549Z,1.30
2023-05-05T12:04:47.141Z,1.50
2023-05-05T12:07:21.368Z,2.10
2023-05-05T12:09:49.397Z,1.20
2023-05-05T12:12:17.200Z,1.20
2023-05-05T12:14:48.520Z,1.27
2023-05-05T12:17:15.911Z,1.05
2023-05-05T12:19:50.490Z,1.15
2023-05-05T12:22:20.991Z,1.50
2023-05-05T12:24:55.337Z,1.75
2023-05-05T12:27:22.801Z,1.70
2023-05-05T12:29:51.138Z,1.98
2023-05-05T12:32:22.537Z,1.50
2023-05-05T12:34:54.317Z,2.25
2023-05-05T12:37:22.808Z,1.75
2023-05-05T12:39:50.767Z,1.63
2023-05-05T12:42:18.456Z,1.48
2023-05-05T12:44:46.729Z,2.30
2023-05-05T12:47:14.552Z,2.00
2023-05-05T12:49:48.593Z,2.97
2023-05-05T12:52:16.526Z,1.70
2023-05-05T12:54:56.845Z,1.80
2023-05-05T12:57:24.256Z,1.83
2023-05-05T12:59:54.781Z,2.05
2023-05-05T13:02:22.451Z,1.10
2023-05-05T13:04:53.651Z,4.35
2023-05-05T13:09:49.254Z,1.40
2023-05-05T13:12:19.427Z,1.40
2023-05-05T13:14:47.209Z,2.77
2023-05-05T13:17:14.819Z,1.45
2023-05-05T13:19:45.890Z,1.90
2023-05-05T13:22:13.989Z,1.77
2023-05-05T13:24:51.756Z,1.80
2023-05-05T13:27:20.525Z,2.20
2023-05-05T13:29:47.913Z,2.22
2023-05-05T13:32:15.276Z,1.58
2023-05-05T13:34:44.004Z,1.77
2023-05-05T13:37:11.509Z,1.65
2023-05-05T13:39:38.815Z,1.80
2023-05-05T13:42:06.563Z,2.22
2023-05-05T13:44:35.218Z,2.10
2023-05-05T13:47:02.989Z,3.25
2023-05-05T13:49:30.388Z,2.50
2023-05-05T13:51:58.542Z,2.20
2023-05-05T13:54:26.022Z,1.70
2023-05-05T13:56:53.382Z,1.50
2023-05-05T13:59:21.778Z,1.23
2023-05-05T14:01:49.578Z,1.63
2023-05-05T14:04:16.932Z,1.77
2023-05-05T14:06:44.422Z,1.48
2023-05-05T14:09:11.885Z,1.25
2023-05-05T14:11:39.378Z,1.55
2023-05-05T14:14:06.887Z,1.50
2023-05-05T14:16:34.335Z,1.60
2023-05-05T14:19:01.701Z,2.40
2023-05-05T14:21:29.017Z,1.75
2023-05-05T14:23:56.695Z,1.40
2023-05-05T14:26:24.105Z,1.95
2023-05-05T14:28:51.618Z,1.88
2023-05-05T14:31:19.020Z,1.20
2023-05-05T14:33:46.474Z,1.50
2023-05-05T14:36:14.362Z,1.00
2023-05-05T14:38:42.797Z,1.45
2023-05-05T14:41:10.159Z,1.20
2023-05-05T14:43:37.481Z,2.20
2023-05-05T14:46:07.378Z,2.25
2023-05-05T14:48:34.936Z,1.50
2023-05-05T14:51:02.405Z,1.60
2023-05-05T14:53:29.739Z,2.60
2023-05-05T14:55:57.176Z,1.50
2023-05-05T14:58:24.608Z,1.85
2023-05-05T15:00:52.861Z,1.35
2023-05-05T15:03:20.598Z,1.20
2023-05-05T15:05:47.986Z,1.77
2023-05-05T15:08:15.238Z,1.10
2023-05-05T15:10:42.569Z,1.30
2023-05-05T15:13:09.934Z,1.88
2023-05-05T15:15:37.717Z,1.80
2023-05-05T15:18:05.304Z,1.58
2023-05-05T15:20:32.621Z,1.50
2023-05-05T15:23:01.345Z,1.60
2023-05-05T15:25:28.693Z,1.30
2023-05-05T15:27:57.988Z,1.27
2023-05-05T15:30:26.795Z,1.15
2023-05-05T15:32:54.574Z,1.05
2023-05-05T15:35:23.502Z,1.30
2023-05-05T15:37:51.050Z,1.00
2023-05-05T15:40:18.532Z,1.08
2023-05-05T15:42:46.060Z,1.20
2023-05-05T15:45:14.789Z,2.10
2023-05-05T15:47:42.246Z,1.95
2023-05-05T15:50:10.076Z,1.20
2023-05-05T15:52:37.467Z,1.10
2023-05-05T15:55:05.013Z,1.20
2023-05-05T15:57:32.609Z,0.93
2023-05-05T16:00:00.334Z,1.00
2023-05-05T16:02:27.760Z,1.33
2023-05-05T16:04:55.198Z,1.02
2023-05-05T16:07:22.459Z,1.90
2023-05-05T16:09:49.767Z,1.20
2023-05-05T16:12:17.096Z,1.20
2023-05-05T16:14:44.322Z,1.20
2023-05-05T16:17:11.537Z,1.00
2023-05-05T16:19:38.971Z,1.10
2023-05-05T16:22:06.217Z,1.15
2023-05-05T16:24:33.525Z,1.48
2023-05-05T16:27:02.010Z,1.40
2023-05-05T16:29:29.608Z,1.10
2023-05-05T16:31:56.965Z,1.10
2023-05-05T16:34:27.324Z,1.05
2023-05-05T16:36:54.667Z,0.90
2023-05-05T16:39:21.944Z,1.00
2023-05-05T16:41:49.274Z,0.90
2023-05-05T16:44:16.556Z,1.15
2023-05-05T16:46:44.293Z,1.20
2023-05-05T16:49:11.685Z,1.50
2023-05-05T16:51:39.082Z,1.30
2023-05-05T16:54:06.385Z,1.33
2023-05-05T16:57:08.297Z,1.25
2023-05-05T16:59:36.133Z,1.10
2023-05-05T17:02:04.241Z,1.50
2023-05-05T17:04:31.628Z,4.07
2023-05-05T17:06:59.131Z,3.47
2023-05-05T17:09:27.292Z,3.85
2023-05-05T17:11:54.722Z,4.57
2023-05-05T17:14:22.409Z,5.18
2023-05-05T17:16:49.932Z,4.57
2023-05-05T17:19:17.385Z,3.20
2023-05-05T17:21:44.692Z,2.28
2023-05-05T17:24:12.165Z,3.45
2023-05-05T17:26:41.473Z,2.55
2023-05-05T17:29:10.929Z,1.83
2023-05-05T17:31:39.705Z,2.25
2023-05-05T17:34:07.241Z,1.98
2023-05-05T17:36:35.467Z,2.00
2023-05-05T17:39:02.944Z,2.10
2023-05-05T17:41:30.438Z,2.45
2023-05-05T17:43:59.673Z,2.17
2023-05-05T17:46:27.440Z,2.00
2023-05-05T17:49:02.337Z,2.20
2023-05-05T17:51:37.376Z,1.90
2023-05-05T17:54:05.893Z,2.03
2023-05-05T17:56:34.750Z,2.13
2023-05-05T17:59:02.264Z,2.50
2023-05-05T18:01:30.035Z,2.40
2023-05-05T18:03:57.524Z,2.33
2023-05-05T18:06:24.875Z,2.50
2023-05-05T18:11:50.833Z,2.38
2023-05-05T18:15:01.655Z,2.17
2023-05-05T18:17:29.636Z,2.22
2023-05-05T18:19:57.726Z,1.50
2023-05-05T18:22:25.696Z,1.60
2023-05-05T18:24:58.912Z,1.70
2023-05-05T18:27:32.559Z,2.05
2023-05-05T18:29:59.952Z,1.92
2023-05-05T18:32:29.523Z,2.08
2023-05-05T18:34:58.601Z,1.90
2023-05-05T18:37:30.291Z,1.70
2023-05-05T18:39:58.107Z,1.70
2023-05-05T18:42:25.501Z,1.73
2023-05-05T18:44:52.858Z,1.90
2023-05-05T18:47:20.537Z,3.05
2023-05-05T18:50:22.464Z,2.72
2023-05-05T18:52:50.166Z,2.42
2023-05-05T18:59:01.461Z,2.47
2023-05-05T19:04:30.723Z,2.45
2023-05-05T19:06:58.504Z,2.33
2023-05-05T19:09:26.035Z,2.40
2023-05-05T19:11:53.440Z,2.28
2023-05-05T19:15:14.482Z,2.45
2023-05-05T19:17:42.062Z,2.97
2023-05-05T19:20:09.809Z,2.40
2023-05-05T19:22:58.214Z,3.20
2023-05-05T19:25:33.316Z,3.20
2023-05-05T19:28:00.678Z,3.23
2023-05-05T19:33:52.003Z,3.05
2023-05-05T19:36:22.611Z,2.75
2023-05-05T19:38:56.665Z,4.20
2023-05-05T19:41:24.493Z,2.72
2023-05-05T19:43:51.884Z,2.75
2023-05-05T19:46:19.785Z,3.10
2023-05-05T19:48:47.241Z,3.05
2023-05-05T19:51:14.801Z,2.70
2023-05-05T19:53:42.839Z,2.90
2023-05-05T19:56:32.897Z,3.53
2023-05-05T19:59:28.046Z,2.78
2023-05-05T20:01:55.512Z,3.42
2023-05-05T20:04:22.887Z,3.67
2023-05-05T20:06:50.261Z,3.13
2023-05-05T20:09:39.972Z,3.55
2023-05-05T20:12:16.324Z,3.33
2023-05-05T20:14:46.744Z,3.45
2023-05-05T20:17:15.815Z,3.50
2023-05-05T20:19:46.765Z,3.78
2023-05-05T20:22:14.598Z,3.42
2023-05-05T20:24:42.222Z,3.15
2023-05-05T20:27:09.559Z,3.40
2023-05-05T20:29:37.200Z,3.38
2023-05-05T20:32:07.018Z,2.90
2023-05-05T20:34:35.102Z,2.97
2023-05-05T20:37:02.775Z,3.05
2023-05-05T20:39:30.137Z,3.05
2023-05-05T20:41:57.689Z,3.17
2023-05-05T20:44:26.241Z,3.40
2023-05-05T20:46:53.679Z,3.10
2023-05-05T20:49:21.117Z,2.92
2023-05-05T20:51:48.450Z,2.85
2023-05-05T20:54:16.180Z,2.75
2023-05-05T20:56:44.360Z,2.53
2023-05-05T20:59:12.273Z,2.65
2023-05-05T21:01:40.109Z,2.70
2023-05-05T21:04:07.550Z,2.47
2023-05-05T21:06:34.972Z,3.20
2023-05-05T21:09:02.386Z,3.10
2023-05-05T21:11:29.717Z,3.40
2023-05-05T21:13:57.075Z,3.70
2023-05-05T21:16:24.444Z,3.72
2023-05-05T21:18:51.774Z,3.85
2023-05-05T21:21:19.708Z,3.40
2023-05-05T21:23:47.913Z,3.33
2023-05-05T21:26:15.292Z,3.28
2023-05-05T21:28:42.584Z,3.25
2023-05-05T21:31:21.742Z,2.95
2023-05-05T21:33:50.218Z,2.50
2023-05-05T21:36:19.138Z,4.13
2023-05-05T21:38:46.607Z,5.05
2023-05-05T21:41:13.931Z,4.05
2023-05-05T21:43:41.296Z,4.47
2023-05-05T21:46:08.694Z,5.15
2023-05-05T21:48:38.616Z,7.63
2023-05-05T21:51:06.790Z,4.55
2023-05-05T21:53:34.188Z,4.10
2023-05-05T21:56:01.942Z,4.10
2023-05-05T21:58:29.559Z,3.00
2023-05-05T22:00:56.950Z,3.70
2023-05-05T22:03:24.444Z,3.75
2023-05-05T22:05:51.959Z,3.13
2023-05-05T22:08:20.077Z,2.70
2023-05-05T22:10:47.577Z,3.05
2023-05-05T22:13:15.033Z,3.25
2023-05-05T22:15:46.539Z,3.00
2023-05-05T22:18:14.971Z,3.35
2023-05-05T22:20:42.588Z,5.10
2023-05-05T22:23:09.897Z,2.20
2023-05-05T22:25:37.323Z,2.00
2023-05-05T22:28:04.982Z,2.00
2023-05-05T22:30:32.317Z,2.15
2023-05-05T22:32:59.767Z,1.90
2023-05-05T22:35:27.347Z,1.83
2023-05-05T22:37:54.817Z,2.45
2023-05-05T22:40:22.208Z,1.35
2023-05-05T22:42:49.842Z,1.40
2023-05-05T22:45:17.394Z,1.70
2023-05-05T22:47:45.212Z,1.95
2023-05-05T22:50:12.574Z,2.15
2023-05-05T22:52:40.355Z,3.65
2023-05-05T22:55:08.460Z,0.90
2023-05-05T22:57:36.427Z,1.13
2023-05-05T23:00:05.233Z,1.08
2023-05-05T23:02:33.102Z,0.70
2023-05-05T23:05:00.719Z,0.80
2023-05-05T23:07:28.016Z,0.65
2023-05-05T23:09:55.971Z,0.70
2023-05-05T23:12:23.362Z,1.20
2023-05-05T23:14:50.776Z,0.70
2023-05-05T23:17:18.412Z,0.90
2023-05-05T23:19:49.029Z,0.80
2023-05-05T23:22:16.640Z,0.70
2023-05-05T23:24:44.036Z,1.10
2023-05-05T23:27:11.421Z,0.60
2023-05-05T23:29:39.925Z,1.08
2023-05-05T23:32:07.317Z,0.90
2023-05-05T23:34:34.754Z,0.60
2023-05-05T23:37:03.439Z,0.90
2023-05-05T23:39:34.509Z,0.70
2023-05-05T23:42:02.044Z,0.80
2023-05-05T23:44:29.420Z,0.70
2023-05-05T23:46:56.737Z,0.55
2023-05-05T23:49:26.195Z,0.70
2023-05-05T23:51:53.591Z,0.70
2023-05-05T23:54:20.938Z,1.15
2023-05-05T23:56:48.217Z,1.00
2023-05-05T23:59:15.638Z,1.15
